Time;durP1;ratioP1;P1;durP2;ratioP2;P2;SDS_P1;SDS_P2;PMS_P1;PMS_P2;Temp;Humidity;BMP_temperature;BMP_pressure;BME280_temperature;BME280_humidity;BME280_pressure;Samples;Min_cycle;Max_cycle;Signal;HPM_P1;HPM_P2
2023/12/24 00:01:11;;;;;;;13.57;2.30;;;9.50;89.40;;;;;;5008445;28;20057;-71
2023/12/24 00:03:39;;;;;;;12.77;2.70;;;9.50;89.40;;;;;;5004190;28;20058;-70
2023/12/24 00:06:07;;;;;;;7.37;1.73;;;9.50;89.20;;;;;;5004882;28;20058;-71
2023/12/24 00:08:35;;;;;;;11.02;2.25;;;9.50;89.10;;;;;;5008960;28;20054;-71
2023/12/24 00:11:02;;;;;;;10.15;2.30;;;9.50;89.10;;;;;;5001609;28;20097;-71
2023/12/24 00:13:29;;;;;;;14.82;2.13;;;9.50;89.10;;;;;;5012400;28;20060;-71
2023/12/24 00:15:57;;;;;;;8.45;1.27;;;9.50;89.10;;;;;;5024899;28;20056;-71
2023/12/24 00:18:24;;;;;;;11.70;2.73;;;9.50;89.00;;;;;;5013082;28;20054;-70
2023/12/24 00:20:51;;;;;;;15.60;2.63;;;9.50;89.10;;;;;;4986248;28;20528;-71
2023/12/24 00:23:18;;;;;;;7.22;1.42;;;9.50;89.10;;;;;;4996634;28;20082;-71
2023/12/24 00:25:45;;;;;;;10.48;2.13;;;9.60;88.90;;;;;;5005247;28;20443;-72
2023/12/24 00:28:12;;;;;;;11.70;2.28;;;9.60;88.80;;;;;;4988632;28;20060;-73
2023/12/24 00:30:39;;;;;;;11.53;2.33;;;9.60;88.90;;;;;;5004658;28;20051;-71
2023/12/24 00:33:07;;;;;;;13.40;2.10;;;9.50;89.00;;;;;;5009807;28;20144;-73
2023/12/24 00:35:35;;;;;;;9.90;2.25;;;9.50;89.10;;;;;;4987619;28;20050;-72
2023/12/24 00:38:02;;;;;;;5.82;1.05;;;9.60;89.10;;;;;;4988097;28;20149;-73
2023/12/24 00:40:29;;;;;;;11.35;2.45;;;9.50;89.10;;;;;;5021237;28;20045;-70
2023/12/24 00:42:56;;;;;;;8.93;1.97;;;9.50;89.20;;;;;;5020982;28;20141;-71
2023/12/24 00:45:23;;;;;;;8.07;1.80;;;9.60;89.10;;;;;;4988356;28;20552;-71
2023/12/24 00:47:50;;;;;;;10.75;2.30;;;9.50;89.20;;;;;;5004560;28;20895;-72
2023/12/24 00:50:18;;;;;;;7.80;2.03;;;9.60;89.30;;;;;;5017695;28;20054;-73
2023/12/24 00:52:46;;;;;;;10.07;1.77;;;9.50;89.30;;;;;;5004079;28;21191;-73
2023/12/24 00:55:13;;;;;;;11.00;2.30;;;9.60;89.30;;;;;;5007523;28;20054;-70
2023/12/24 00:57:40;;;;;;;9.70;2.13;;;9.60;89.30;;;;;;4984987;28;20088;-71
2023/12/24 01:00:08;;;;;;;10.15;1.80;;;9.60;89.40;;;;;;5012461;28;20093;-70
2023/12/24 01:02:36;;;;;;;11.23;2.10;;;9.60;89.50;;;;;;5022974;28;20126;-71
2023/12/24 01:05:04;;;;;;;8.57;1.63;;;9.60;89.60;;;;;;5025832;28;20061;-72
2023/12/24 01:07:32;;;;;;;10.30;2.10;;;9.60;89.50;;;;;;4983317;28;20448;-71
2023/12/24 01:09:59;;;;;;;7.05;1.42;;;9.60;89.50;;;;;;5009969;28;20050;-71
2023/12/24 01:12:26;;;;;;;10.23;1.83;;;9.60;89.70;;;;;;5004517;28;20082;-71
2023/12/24 01:14:53;;;;;;;12.32;2.10;;;9.60;89.60;;;;;;5005783;28;20509;-72
2023/12/24 01:17:21;;;;;;;9.43;2.13;;;9.60;89.70;;;;;;4988036;28;20691;-73
2023/12/24 01:19:48;;;;;;;10.30;1.40;;;9.60;89.70;;;;;;5005129;28;20076;-73
2023/12/24 01:22:14;;;;;;;10.98;1.80;;;9.60;89.70;;;;;;5003854;28;20054;-72
2023/12/24 01:24:43;;;;;;;8.63;1.38;;;9.60;89.70;;;;;;5012978;28;20146;-73
2023/12/24 01:27:10;;;;;;;7.03;1.27;;;9.60;89.70;;;;;;5021313;28;20050;-73
2023/12/24 01:29:37;;;;;;;7.30;1.30;;;9.60;89.70;;;;;;5000989;28;20057;-71
2023/12/24 01:32:04;;;;;;;5.97;1.57;;;9.70;89.50;;;;;;4993131;28;20058;-73
2023/12/24 01:34:31;;;;;;;9.90;1.30;;;9.60;89.60;;;;;;5011467;28;20113;-71
2023/12/24 01:36:58;;;;;;;8.20;1.42;;;9.70;89.70;;;;;;5002077;28;20073;-71
2023/12/24 01:39:26;;;;;;;7.50;1.50;;;9.60;89.80;;;;;;4983345;28;21139;-73
2023/12/24 01:41:54;;;;;;;10.18;1.77;;;9.60;90.00;;;;;;5002280;28;20057;-70
2023/12/24 01:44:21;;;;;;;7.10;1.00;;;9.60;90.00;;;;;;5002676;28;20058;-71
2023/12/24 01:46:48;;;;;;;8.50;1.42;;;9.60;89.80;;;;;;5017983;28;20576;-73
2023/12/24 01:49:15;;;;;;;10.32;1.52;;;9.60;90.00;;;;;;5007900;28;20066;-71
2023/12/24 01:51:43;;;;;;;6.78;1.10;;;9.60;90.00;;;;;;5008982;28;20133;-72
2023/12/24 01:54:10;;;;;;;5.80;0.90;;;9.70;90.10;;;;;;4990884;28;20070;-73
2023/12/24 01:56:39;;;;;;;7.57;1.10;;;9.60;90.20;;;;;;4986262;28;20054;-71
2023/12/24 01:59:09;;;;;;;5.10;0.93;;;9.60;90.30;;;;;;4975788;28;20529;-71
2023/12/24 02:01:37;;;;;;;6.50;1.30;;;9.70;90.40;;;;;;5007715;28;20089;-73
2023/12/24 02:04:04;;;;;;;6.25;0.98;;;9.70;90.30;;;;;;5007959;28;20461;-71
2023/12/24 02:06:33;;;;;;;6.20;0.90;;;9.70;90.30;;;;;;5004825;28;20520;-71
2023/12/24 02:09:00;;;;;;;5.13;0.87;;;9.70;90.40;;;;;;4990973;28;20131;-71
2023/12/24 02:11:27;;;;;;;4.00;0.95;;;9.70;90.30;;;;;;4994122;28;20057;-70
2023/12/24 02:13:55;;;;;;;5.30;1.00;;;9.70;90.60;;;;;;5005973;28;20784;-71
2023/12/24 02:16:25;;;;;;;4.82;1.00;;;9.70;90.80;;;;;;5001180;28;20081;-70
2023/12/24 02:18:53;;;;;;;2.90;0.55;;;9.70;90.90;;;;;;5006865;28;20086;-71
2023/12/24 02:21:21;;;;;;;6.37;1.37;;;9.70;91.00;;;;;;4998959;28;20085;-73
2023/12/24 02:23:48;;;;;;;6.60;0.93;;;9.70;91.10;;;;;;4986755;28;20086;-71
2023/12/24 02:26:24;;;;;;;6.20;1.10;;;9.70;91.20;;;;;;5006348;28;20650;-73
2023/12/24 02:28:57;;;;;;;6.18;1.17;;;9.70;91.20;;;;;;4989685;28;20057;-73
2023/12/24 02:31:27;;;;;;;7.75;1.50;;;9.70;91.20;;;;;;4986343;28;20490;-72
2023/12/24 02:33:56;;;;;;;4.93;0.80;;;9.70;91.20;;;;;;4997684;28;20113;-71
2023/12/24 02:36:25;;;;;;;4.90;1.00;;;9.70;91.10;;;;;;4969795;28;20050;-71
2023/12/24 02:38:53;;;;;;;7.32;1.33;;;9.70;91.30;;;;;;5021641;28;20157;-70
2023/12/24 02:41:19;;;;;;;6.53;1.30;;;9.70;91.30;;;;;;4996875;28;20153;-73
2023/12/24 02:43:46;;;;;;;5.07;0.90;;;9.70;91.50;;;;;;5005511;28;20058;-71
2023/12/24 02:46:13;;;;;;;5.53;1.00;;;9.70;91.50;;;;;;4988601;28;20046;-71
2023/12/24 02:48:40;;;;;;;4.60;1.00;;;9.70;91.50;;;;;;4988715;28;20660;-71
2023/12/24 02:51:07;;;;;;;8.82;1.55;;;9.70;91.40;;;;;;4985014;28;20058;-71
2023/12/24 02:53:36;;;;;;;4.07;0.60;;;9.70;91.30;;;;;;5007614;28;20501;-70
2023/12/24 02:56:03;;;;;;;5.88;1.08;;;9.70;91.40;;;;;;5006025;28;20126;-71
2023/12/24 02:58:29;;;;;;;4.80;0.90;;;9.70;91.50;;;;;;5002100;28;20137;-71
2023/12/24 03:00:56;;;;;;;4.38;0.80;;;9.70;91.40;;;;;;4985739;28;20057;-71
2023/12/24 03:03:23;;;;;;;4.32;0.90;;;9.70;91.40;;;;;;5006333;28;20065;-71
2023/12/24 03:05:50;;;;;;;4.53;0.95;;;9.70;91.50;;;;;;5005367;28;20628;-73
2023/12/24 03:08:17;;;;;;;5.75;1.00;;;9.70;91.50;;;;;;4985340;28;20058;-71
2023/12/24 03:10:45;;;;;;;4.63;1.03;;;9.70;91.50;;;;;;4970630;28;20884;-72
2023/12/24 03:13:12;;;;;;;3.72;0.60;;;9.70;91.70;;;;;;5002718;28;20125;-71
2023/12/24 03:15:40;;;;;;;6.20;0.88;;;9.70;91.60;;;;;;5018333;28;20097;-71
2023/12/24 03:18:07;;;;;;;4.68;0.98;;;9.70;91.60;;;;;;5000464;28;20082;-72
2023/12/24 03:20:34;;;;;;;3.88;0.68;;;9.70;91.60;;;;;;5002347;28;20148;-71
2023/12/24 03:23:01;;;;;;;5.50;1.20;;;9.70;91.50;;;;;;5004814;28;20050;-72
2023/12/24 03:25:28;;;;;;;5.25;1.02;;;9.70;91.60;;;;;;5005992;28;20064;-71
2023/12/24 03:27:56;;;;;;;6.28;1.00;;;9.70;91.70;;;;;;5007180;28;20046;-71
2023/12/24 03:30:23;;;;;;;7.30;1.30;;;9.70;91.70;;;;;;5008278;28;20559;-71
2023/12/24 03:32:50;;;;;;;4.88;0.80;;;9.70;91.70;;;;;;5011839;28;20129;-72
2023/12/24 03:35:16;;;;;;;6.83;0.70;;;9.70;91.70;;;;;;4994417;28;20531;-71
2023/12/24 03:37:43;;;;;;;4.00;0.80;;;9.70;91.80;;;;;;5001758;28;20061;-72
2023/12/24 03:40:11;;;;;;;4.60;1.02;;;9.70;91.70;;;;;;5001495;28;20046;-71
2023/12/24 03:42:38;;;;;;;4.70;1.02;;;9.70;91.70;;;;;;5017892;28;20062;-72
2023/12/24 03:45:07;;;;;;;5.37;0.70;;;9.70;91.70;;;;;;4998957;28;20050;-72
2023/12/24 03:47:35;;;;;;;4.32;0.70;;;9.70;91.60;;;;;;4992554;28;20259;-71
2023/12/24 03:50:02;;;;;;;4.82;0.98;;;9.70;91.70;;;;;;5015722;28;20053;-72
2023/12/24 03:52:29;;;;;;;6.75;1.00;;;9.70;91.80;;;;;;5007855;28;20061;-72
2023/12/24 03:54:56;;;;;;;5.00;0.90;;;9.70;91.80;;;;;;5007175;28;20057;-71
2023/12/24 03:57:23;;;;;;;4.77;0.80;;;9.80;91.90;;;;;;5017488;28;20060;-72
2023/12/24 03:59:50;;;;;;;4.35;0.80;;;9.80;91.90;;;;;;5026083;28;20273;-72
2023/12/24 04:02:19;;;;;;;3.67;0.70;;;9.80;91.80;;;;;;5023050;28;20055;-71
2023/12/24 04:04:46;;;;;;;3.40;0.70;;;9.80;91.80;;;;;;5023667;28;20949;-71
2023/12/24 04:07:15;;;;;;;4.85;0.77;;;9.80;91.70;;;;;;4993597;28;20050;-71
2023/12/24 04:09:42;;;;;;;3.47;0.60;;;9.80;91.80;;;;;;5004238;28;21214;-71
2023/12/24 04:12:09;;;;;;;3.40;0.60;;;9.80;91.90;;;;;;5004000;28;20278;-72
2023/12/24 04:14:37;;;;;;;3.03;0.75;;;9.80;91.90;;;;;;4987778;28;20054;-72
2023/12/24 04:17:04;;;;;;;2.60;0.57;;;9.80;92.00;;;;;;5007870;28;20054;-71
2023/12/24 04:19:33;;;;;;;3.38;0.43;;;9.80;92.00;;;;;;5021171;28;20070;-71
2023/12/24 04:22:00;;;;;;;4.50;0.40;;;9.80;92.00;;;;;;5003395;28;20046;-72
2023/12/24 04:24:27;;;;;;;2.20;0.30;;;9.80;92.00;;;;;;4996892;28;20312;-71
2023/12/24 04:26:54;;;;;;;2.65;0.35;;;9.80;92.00;;;;;;4993557;28;21737;-72
2023/12/24 04:29:21;;;;;;;3.15;0.40;;;9.80;92.20;;;;;;4997234;28;20053;-72
2023/12/24 04:31:48;;;;;;;1.95;0.30;;;9.80;92.10;;;;;;4990759;28;20050;-72
2023/12/24 04:34:16;;;;;;;3.43;0.40;;;9.80;92.20;;;;;;4992593;28;20059;-72
2023/12/24 04:36:44;;;;;;;1.70;0.30;;;9.80;92.20;;;;;;4992921;28;20851;-72
2023/12/24 04:39:12;;;;;;;2.45;0.38;;;9.80;92.20;;;;;;4994724;28;20127;-72
2023/12/24 04:41:39;;;;;;;3.72;0.77;;;9.90;92.20;;;;;;4987884;28;20081;-72
2023/12/24 04:44:07;;;;;;;2.38;0.32;;;9.90;92.20;;;;;;5001282;28;20081;-72
2023/12/24 04:46:40;;;;;;;3.53;0.60;;;10.00;92.20;;;;;;5002529;28;20050;-72
2023/12/24 04:49:07;;;;;;;3.83;0.50;;;10.00;92.20;;;;;;5014061;28;20288;-72
2023/12/24 04:51:35;;;;;;;2.85;0.52;;;10.00;92.20;;;;;;4993942;28;20054;-72
2023/12/24 04:54:05;;;;;;;2.13;0.45;;;10.00;92.20;;;;;;4987897;28;20203;-72
2023/12/24 04:56:32;;;;;;;3.22;0.50;;;10.00;92.30;;;;;;5018193;28;20851;-72
2023/12/24 04:58:58;;;;;;;2.40;0.50;;;10.00;92.20;;;;;;5002512;28;20077;-72
2023/12/24 05:01:27;;;;;;;2.33;0.52;;;10.00;92.30;;;;;;5009386;28;20269;-72
2023/12/24 05:03:54;;;;;;;2.45;0.60;;;10.00;92.40;;;;;;4993101;28;20473;-72
2023/12/24 05:06:23;;;;;;;2.90;0.80;;;10.10;92.30;;;;;;5009799;28;20052;-73
2023/12/24 05:08:51;;;;;;;2.33;0.50;;;10.10;92.30;;;;;;4999645;28;20042;-72
2023/12/24 05:11:19;;;;;;;3.70;0.60;;;10.10;92.30;;;;;;4999106;28;20062;-72
2023/12/24 05:13:46;;;;;;;2.47;0.50;;;10.10;92.30;;;;;;4992603;28;20369;-72
2023/12/24 05:16:13;;;;;;;2.10;0.50;;;10.10;92.40;;;;;;4997507;28;20065;-72
2023/12/24 05:18:40;;;;;;;3.15;0.57;;;10.10;92.50;;;;;;4991487;28;20581;-72
2023/12/24 05:21:07;;;;;;;3.10;0.63;;;10.10;92.50;;;;;;4984984;28;20512;-72
2023/12/24 05:23:35;;;;;;;3.70;0.70;;;10.10;92.50;;;;;;5004355;28;20104;-72
2023/12/24 05:26:02;;;;;;;2.70;0.65;;;10.20;92.50;;;;;;4991015;28;20380;-72
2023/12/24 05:28:30;;;;;;;2.78;0.77;;;10.20;92.50;;;;;;5013199;28;20054;-71
2023/12/24 05:30:57;;;;;;;2.65;0.68;;;10.20;92.50;;;;;;4996453;28;20054;-72
2023/12/24 05:33:24;;;;;;;3.05;0.70;;;10.20;92.50;;;;;;5003567;28;20054;-72
2023/12/24 05:35:51;;;;;;;2.83;0.60;;;10.20;92.50;;;;;;5005426;28;20136;-72
2023/12/24 05:38:19;;;;;;;3.88;0.90;;;10.20;92.60;;;;;;5014729;28;20294;-71
2023/12/24 05:40:46;;;;;;;2.90;0.63;;;10.20;92.60;;;;;;5013397;28;20050;-72
2023/12/24 05:43:13;;;;;;;4.90;1.17;;;10.10;92.80;;;;;;4990579;28;20046;-71
2023/12/24 05:45:41;;;;;;;3.30;0.77;;;10.20;92.80;;;;;;5020119;28;20904;-71
2023/12/24 05:48:08;;;;;;;5.73;1.20;;;10.20;92.80;;;;;;5009332;28;20054;-72
2023/12/24 05:50:35;;;;;;;3.97;1.17;;;10.20;92.90;;;;;;5001348;28;20350;-71
2023/12/24 05:53:02;;;;;;;4.70;1.40;;;10.20;92.80;;;;;;5000928;28;20773;-71
2023/12/24 05:55:29;;;;;;;4.80;1.40;;;10.20;92.90;;;;;;5015418;28;20754;-72
2023/12/24 05:57:56;;;;;;;5.00;1.23;;;10.20;93.00;;;;;;5010868;28;20054;-71
2023/12/24 06:00:23;;;;;;;6.03;1.60;;;10.30;93.00;;;;;;4999028;28;20050;-71
2023/12/24 06:02:52;;;;;;;4.30;1.35;;;10.30;92.90;;;;;;5015167;28;20769;-72
2023/12/24 06:05:19;;;;;;;4.82;1.20;;;10.30;92.90;;;;;;5019627;28;20105;-71
2023/12/24 06:07:46;;;;;;;7.47;1.73;;;10.30;92.80;;;;;;5002858;28;21006;-71
2023/12/24 06:10:13;;;;;;;6.25;1.92;;;10.30;92.80;;;;;;4984899;28;20887;-71
2023/12/24 06:12:40;;;;;;;6.67;1.63;;;10.30;92.90;;;;;;5007024;28;20149;-71
2023/12/24 06:15:08;;;;;;;5.22;1.70;;;10.30;93.00;;;;;;5020933;28;20269;-71
2023/12/24 06:17:35;;;;;;;6.63;2.20;;;10.30;93.10;;;;;;5007562;28;20053;-72
2023/12/24 06:20:04;;;;;;;5.13;1.85;;;10.30;93.10;;;;;;5001077;28;20073;-71
2023/12/24 06:22:31;;;;;;;6.63;2.05;;;10.30;93.00;;;;;;4985186;28;20163;-69
2023/12/24 06:24:58;;;;;;;4.73;1.53;;;10.30;93.20;;;;;;5003317;28;20121;-71
2023/12/24 06:27:25;;;;;;;7.03;2.13;;;10.30;93.20;;;;;;5003214;28;20768;-71
2023/12/24 06:29:52;;;;;;;9.15;2.58;;;10.30;93.20;;;;;;4996862;28;20406;-71
2023/12/24 06:32:19;;;;;;;8.60;2.35;;;10.40;93.30;;;;;;5005315;28;20054;-72
2023/12/24 06:34:47;;;;;;;9.85;2.53;;;10.40;93.30;;;;;;5005502;28;20057;-71
2023/12/24 06:37:15;;;;;;;7.43;2.10;;;10.40;93.40;;;;;;4998191;28;20059;-71
2023/12/24 06:39:42;;;;;;;9.45;2.45;;;10.40;93.40;;;;;;5015908;28;20249;-71
2023/12/24 06:42:09;;;;;;;10.20;3.17;;;10.40;93.40;;;;;;5003649;28;20068;-71
2023/12/24 06:44:36;;;;;;;9.98;3.17;;;10.40;93.40;;;;;;5008274;28;20061;-71
2023/12/24 06:47:03;;;;;;;9.98;2.75;;;10.50;93.40;;;;;;5000666;28;20827;-71
2023/12/24 06:49:30;;;;;;;7.13;2.70;;;10.50;93.40;;;;;;5006329;28;20058;-71
2023/12/24 06:51:57;;;;;;;9.15;2.90;;;10.50;93.30;;;;;;4987472;28;20300;-71
2023/12/24 06:54:25;;;;;;;9.20;3.38;;;10.50;93.30;;;;;;4985179;28;20062;-71
2023/12/24 06:56:52;;;;;;;12.75;3.65;;;10.50;93.30;;;;;;4968992;28;20055;-72
2023/12/24 06:59:19;;;;;;;12.60;4.13;;;10.50;93.20;;;;;;4997527;28;20725;-72
2023/12/24 07:01:46;;;;;;;9.40;2.00;;;10.60;93.30;;;;;;5017780;28;20057;-71
2023/12/24 07:04:13;;;;;;;8.68;2.30;;;10.60;93.20;;;;;;5010802;28;21016;-71
2023/12/24 07:06:39;;;;;;;13.30;3.53;;;10.60;93.20;;;;;;4985402;28;20141;-71
2023/12/24 07:09:07;;;;;;;9.60;2.60;;;10.60;93.20;;;;;;5002468;28;20089;-70
2023/12/24 07:11:35;;;;;;;13.63;3.10;;;10.60;93.20;;;;;;5001984;28;20113;-71
2023/12/24 07:14:03;;;;;;;11.27;3.42;;;10.60;93.20;;;;;;4997161;28;20342;-71
2023/12/24 07:16:30;;;;;;;8.25;2.67;;;10.60;93.20;;;;;;5023933;28;20053;-72
2023/12/24 07:18:58;;;;;;;9.30;2.50;;;10.70;93.20;;;;;;5022808;28;20093;-71
2023/12/24 07:21:25;;;;;;;13.27;3.10;;;10.70;93.20;;;;;;4990227;28;20053;-71
2023/12/24 07:23:51;;;;;;;9.33;2.87;;;10.70;93.20;;;;;;4988514;28;20359;-72
2023/12/24 07:26:20;;;;;;;12.93;3.15;;;10.70;93.20;;;;;;5010589;28;20293;-71
2023/12/24 07:28:49;;;;;;;10.32;3.13;;;10.70;93.20;;;;;;5007448;28;20063;-71
2023/12/24 07:31:16;;;;;;;9.18;2.83;;;10.70;93.10;;;;;;4984358;28;20053;-74
2023/12/24 07:33:43;;;;;;;8.68;2.92;;;10.70;93.10;;;;;;5009074;28;20073;-73
2023/12/24 07:36:10;;;;;;;12.40;2.90;;;10.70;93.00;;;;;;5007910;28;20097;-74
2023/12/24 07:38:37;;;;;;;12.73;3.10;;;10.70;93.00;;;;;;5013643;28;20744;-71
2023/12/24 07:41:04;;;;;;;10.65;3.70;;;10.80;93.00;;;;;;5005152;28;20118;-73
2023/12/24 07:43:31;;;;;;;13.48;3.80;;;10.80;93.00;;;;;;4999918;28;20050;-72
2023/12/24 07:45:59;;;;;;;8.25;2.15;;;10.80;93.10;;;;;;4987347;28;20058;-73
2023/12/24 07:48:26;;;;;;;8.83;2.53;;;10.80;93.00;;;;;;5009104;28;20050;-73
2023/12/24 07:50:53;;;;;;;12.63;2.92;;;10.80;93.10;;;;;;5003030;28;20057;-72
2023/12/24 07:53:20;;;;;;;9.85;2.47;;;10.80;93.00;;;;;;5005358;28;20120;-72
2023/12/24 07:55:47;;;;;;;10.63;3.35;;;10.90;93.00;;;;;;5005703;28;20054;-72
2023/12/24 07:58:14;;;;;;;6.20;1.73;;;10.90;93.00;;;;;;5009565;28;20054;-71
2023/12/24 08:00:41;;;;;;;9.37;2.07;;;10.90;93.00;;;;;;4999086;28;20068;-72
2023/12/24 08:03:10;;;;;;;15.32;3.83;;;10.90;93.00;;;;;;5001500;28;20051;-72
2023/12/24 08:05:37;;;;;;;15.90;4.18;;;10.90;93.00;;;;;;4986892;28;20148;-72
2023/12/24 08:08:05;;;;;;;16.73;3.33;;;10.90;93.20;;;;;;4987547;28;20064;-72
2023/12/24 08:10:32;;;;;;;13.45;3.38;;;10.90;93.00;;;;;;4990644;28;20057;-72
2023/12/24 08:12:57;;;;;;;12.90;2.57;;;10.90;93.00;;;;;;5006339;28;20054;-72
2023/12/24 08:15:25;;;;;;;17.73;3.95;;;11.00;93.00;;;;;;5015536;28;20050;-73
2023/12/24 08:17:52;;;;;;;9.88;3.08;;;11.00;92.80;;;;;;5002196;28;20059;-72
2023/12/24 08:20:22;;;;;;;9.38;2.45;;;11.00;92.60;;;;;;5005362;28;20137;-72
2023/12/24 08:22:50;;;;;;;10.77;2.40;;;11.00;92.70;;;;;;4999833;28;20481;-73
2023/12/24 08:25:18;;;;;;;10.02;2.90;;;11.00;92.60;;;;;;5022887;28;20363;-73
2023/12/24 08:27:45;;;;;;;12.82;2.67;;;11.00;92.50;;;;;;5027136;28;20058;-73
2023/12/24 08:30:13;;;;;;;12.45;2.85;;;11.00;92.70;;;;;;5010018;28;20108;-73
2023/12/24 08:32:40;;;;;;;12.63;2.63;;;11.10;92.80;;;;;;5015912;28;20042;-73
2023/12/24 08:35:08;;;;;;;10.47;2.50;;;11.10;92.80;;;;;;5011220;28;20060;-72
2023/12/24 08:37:36;;;;;;;12.60;2.25;;;11.10;92.70;;;;;;4995020;28;20311;-71
2023/12/24 08:40:04;;;;;;;13.35;2.90;;;11.10;92.70;;;;;;5006793;28;20575;-72
2023/12/24 08:42:31;;;;;;;13.10;3.00;;;11.10;92.70;;;;;;5006699;28;20674;-72
2023/12/24 08:44:58;;;;;;;11.82;2.55;;;11.10;92.60;;;;;;5011336;28;20177;-71
2023/12/24 08:47:25;;;;;;;13.60;3.20;;;11.10;92.60;;;;;;5004085;28;20141;-73
2023/12/24 08:49:52;;;;;;;9.05;2.22;;;11.10;92.60;;;;;;5006821;28;20266;-73
2023/12/24 08:52:20;;;;;;;14.98;2.33;;;11.20;92.50;;;;;;5000788;28;20691;-73
2023/12/24 08:54:50;;;;;;;14.80;2.75;;;11.30;92.20;;;;;;4984616;28;20050;-72
2023/12/24 08:57:20;;;;;;;13.75;3.10;;;11.30;92.20;;;;;;4998273;28;20069;-72
2023/12/24 08:59:47;;;;;;;9.17;2.87;;;11.30;92.10;;;;;;4985713;28;20062;-73
2023/12/24 09:02:14;;;;;;;14.98;2.95;;;11.30;92.20;;;;;;4985118;28;20239;-73
2023/12/24 09:04:41;;;;;;;9.88;2.17;;;11.30;92.00;;;;;;5003871;28;20053;-74
2023/12/24 09:07:08;;;;;;;11.20;1.98;;;11.30;92.00;;;;;;4986308;28;20505;-74
2023/12/24 09:09:36;;;;;;;6.00;1.17;;;11.30;92.10;;;;;;5005303;28;20072;-73
2023/12/24 09:12:05;;;;;;;10.57;1.93;;;11.30;92.20;;;;;;5003560;28;20050;-73
2023/12/24 09:14:31;;;;;;;11.00;2.47;;;11.30;92.20;;;;;;5004707;28;20386;-72
2023/12/24 09:16:58;;;;;;;11.23;2.45;;;11.30;92.20;;;;;;5006039;28;20061;-72
2023/12/24 09:19:25;;;;;;;10.95;2.25;;;11.30;92.20;;;;;;4989357;28;20058;-72
2023/12/24 09:21:55;;;;;;;9.40;2.17;;;11.30;92.40;;;;;;5005523;28;20464;-72
2023/12/24 09:24:22;;;;;;;9.53;2.37;;;11.30;92.50;;;;;;5007257;28;20054;-72
2023/12/24 09:26:49;;;;;;;11.13;2.15;;;11.30;92.60;;;;;;5003331;28;20341;-73
2023/12/24 09:29:22;;;;;;;8.35;1.98;;;11.30;92.70;;;;;;5005062;28;20064;-72
2023/12/24 09:31:49;;;;;;;11.10;2.40;;;11.30;92.60;;;;;;5009279;28;20258;-73
2023/12/24 09:34:16;;;;;;;13.23;2.60;;;11.30;92.60;;;;;;4991367;28;20193;-72
2023/12/24 09:36:43;;;;;;;12.00;2.37;;;11.30;92.60;;;;;;5004726;28;20365;-73
2023/12/24 09:39:10;;;;;;;13.23;2.88;;;11.40;92.60;;;;;;5005772;28;20244;-73
2023/12/24 09:41:38;;;;;;;8.48;1.70;;;11.40;92.50;;;;;;5001630;28;20046;-73
2023/12/24 09:44:06;;;;;;;8.25;1.85;;;11.40;92.50;;;;;;5004100;28;20054;-73
2023/12/24 09:46:34;;;;;;;10.02;1.90;;;11.40;92.30;;;;;;5004837;28;20058;-72
2023/12/24 09:49:01;;;;;;;9.10;2.10;;;11.40;92.20;;;;;;5004367;28;20058;-72
2023/12/24 09:51:30;;;;;;;9.15;2.20;;;11.50;92.00;;;;;;5003701;28;20717;-72
2023/12/24 09:53:58;;;;;;;13.77;2.58;;;11.50;92.10;;;;;;5004366;28;20050;-72
2023/12/24 09:56:24;;;;;;;8.95;2.08;;;11.50;92.10;;;;;;5004780;28;20864;-73
2023/12/24 09:58:51;;;;;;;8.60;1.88;;;11.50;91.90;;;;;;5005646;28;20058;-73
2023/12/24 10:01:19;;;;;;;11.20;2.67;;;11.50;91.80;;;;;;5013323;28;20080;-72
2023/12/24 10:03:47;;;;;;;10.98;2.13;;;11.50;91.60;;;;;;5001956;28;20461;-72
2023/12/24 10:06:14;;;;;;;9.65;1.27;;;11.60;91.50;;;;;;5002762;28;20054;-72
2023/12/24 10:08:41;;;;;;;6.80;1.98;;;11.60;91.50;;;;;;4990548;28;20752;-72
2023/12/24 10:11:16;;;;;;;11.07;1.60;;;11.70;91.30;;;;;;5001462;28;20084;-73
2023/12/24 10:13:44;;;;;;;10.53;1.90;;;11.70;91.30;;;;;;5002491;28;20137;-72
2023/12/24 10:16:11;;;;;;;10.73;2.10;;;11.70;91.50;;;;;;5001926;28;20484;-73
2023/12/24 10:18:38;;;;;;;9.90;1.50;;;11.70;91.40;;;;;;5004885;28;20054;-71
2023/12/24 10:21:10;;;;;;;11.82;1.98;;;11.70;91.40;;;;;;5000299;28;20089;-73
2023/12/24 10:23:37;;;;;;;7.18;1.42;;;11.70;91.40;;;;;;5015931;28;20046;-71
2023/12/24 10:26:06;;;;;;;9.27;1.70;;;11.70;91.30;;;;;;5009583;28;20078;-70
2023/12/24 10:28:34;;;;;;;8.10;1.60;;;11.70;91.30;;;;;;5025400;28;20257;-72
2023/12/24 10:31:08;;;;;;;9.48;1.80;;;11.80;91.30;;;;;;5002426;28;20138;-75
2023/12/24 10:33:36;;;;;;;5.50;1.17;;;11.80;91.20;;;;;;4990607;28;20065;-72
2023/12/24 10:36:03;;;;;;;5.22;1.10;;;11.80;91.10;;;;;;5004854;28;20064;-71
2023/12/24 10:38:31;;;;;;;7.40;1.30;;;11.90;91.20;;;;;;5001920;28;20060;-72
2023/12/24 10:40:58;;;;;;;8.05;1.30;;;11.90;91.10;;;;;;5001132;28;20282;-72
2023/12/24 10:43:25;;;;;;;7.10;1.65;;;11.90;91.10;;;;;;5002475;28;20060;-71
2023/12/24 10:45:52;;;;;;;6.63;1.38;;;11.90;91.00;;;;;;5007164;28;20056;-71
2023/12/24 10:48:20;;;;;;;7.07;1.23;;;11.90;90.90;;;;;;5008594;28;20060;-71
2023/12/24 10:50:47;;;;;;;9.13;1.47;;;11.90;90.70;;;;;;5002120;28;20051;-73
2023/12/24 10:53:14;;;;;;;9.60;1.67;;;11.90;90.60;;;;;;5006961;28;20376;-73
2023/12/24 10:55:55;;;;;;;11.25;1.73;;;12.00;90.50;;;;;;5004925;28;20051;-74
2023/12/24 10:58:33;;;;;;;12.45;1.88;;;12.00;90.20;;;;;;5009811;28;20061;-73
2023/12/24 11:01:07;;;;;;;11.65;1.95;;;12.00;90.20;;;;;;5024208;28;20057;-75
2023/12/24 11:03:47;;;;;;;11.30;1.97;;;12.00;90.20;;;;;;5001069;28;20051;-73
2023/12/24 11:06:47;;;;;;;9.23;1.27;;;12.00;90.10;;;;;;5003121;28;20373;-75
2023/12/24 11:13:03;;;;;;;9.13;1.10;;;12.00;89.90;;;;;;4982033;28;20043;-73
2023/12/24 11:15:41;;;;;;;11.75;1.95;;;12.10;89.80;;;;;;5019661;28;20057;-73
2023/12/24 11:18:08;;;;;;;11.27;1.90;;;12.10;89.80;;;;;;5013295;28;20059;-73
2023/12/24 11:20:40;;;;;;;7.82;1.45;;;12.10;89.60;;;;;;5002223;28;20234;-73
2023/12/24 11:23:16;;;;;;;7.68;1.30;;;12.10;89.60;;;;;;4984679;28;20058;-74
2023/12/24 11:25:45;;;;;;;11.50;1.98;;;12.10;89.60;;;;;;4979307;28;20512;-74
2023/12/24 11:28:36;;;;;;;9.32;1.90;;;12.10;89.50;;;;;;4967612;28;20050;-73
2023/12/24 11:31:05;;;;;;;13.27;1.70;;;12.10;89.40;;;;;;5001635;28;20053;-73
2023/12/24 11:33:46;;;;;;;8.52;1.58;;;12.10;89.30;;;;;;5007307;28;20275;-73
2023/12/24 11:36:14;;;;;;;8.10;1.30;;;12.10;89.40;;;;;;5004622;28;20609;-73
2023/12/24 11:38:42;;;;;;;6.50;0.98;;;12.10;89.50;;;;;;5000059;28;20059;-73
2023/12/24 11:41:12;;;;;;;6.20;1.02;;;12.10;89.40;;;;;;4997225;28;20869;-73
2023/12/24 11:43:42;;;;;;;7.60;1.43;;;12.10;89.50;;;;;;4989140;28;20058;-73
2023/12/24 11:46:10;;;;;;;8.07;1.65;;;12.10;89.50;;;;;;5001290;28;20305;-72
2023/12/24 11:48:37;;;;;;;9.20;1.33;;;12.20;89.30;;;;;;5007198;28;20062;-73
2023/12/24 11:51:09;;;;;;;7.40;1.30;;;12.20;89.20;;;;;;5016166;28;20153;-73
2023/12/24 11:53:37;;;;;;;8.38;1.52;;;12.20;89.10;;;;;;4995161;28;20058;-72
2023/12/24 11:56:10;;;;;;;6.90;1.60;;;12.20;89.00;;;;;;5014896;28;20392;-72
2023/12/24 11:58:43;;;;;;;7.55;1.35;;;12.20;89.10;;;;;;4995562;28;20266;-73
2023/12/24 12:01:10;;;;;;;7.30;1.27;;;12.20;89.30;;;;;;4993847;28;20050;-73
2023/12/24 12:03:38;;;;;;;7.40;1.25;;;12.30;89.20;;;;;;5011329;28;20137;-74
2023/12/24 12:06:07;;;;;;;7.90;1.85;;;12.20;89.10;;;;;;5013020;28;20157;-72
2023/12/24 12:08:34;;;;;;;8.10;1.57;;;12.20;89.30;;;;;;5003062;28;20141;-74
2023/12/24 12:11:00;;;;;;;9.00;1.67;;;12.20;89.30;;;;;;5000181;28;20315;-72
2023/12/24 12:13:28;;;;;;;7.85;1.55;;;12.20;89.40;;;;;;4995002;28;20051;-73
2023/12/24 12:15:57;;;;;;;7.28;1.02;;;12.20;89.40;;;;;;4994634;28;20058;-74
2023/12/24 12:18:24;;;;;;;5.88;1.42;;;12.20;89.40;;;;;;4997292;28;20051;-72
2023/12/24 12:20:51;;;;;;;8.73;1.70;;;12.20;89.50;;;;;;4995005;28;20058;-75
2023/12/24 12:23:19;;;;;;;7.20;1.25;;;12.20;89.50;;;;;;5000813;28;20254;-72
2023/12/24 12:25:46;;;;;;;12.68;2.20;;;12.20;89.60;;;;;;5001716;28;20230;-72
2023/12/24 12:28:13;;;;;;;9.98;2.03;;;12.30;89.50;;;;;;4982201;28;20053;-71
2023/12/24 12:30:40;;;;;;;11.23;2.00;;;12.30;89.60;;;;;;5001428;28;20838;-73
2023/12/24 12:33:09;;;;;;;7.07;2.07;;;12.30;89.60;;;;;;4986730;28;20084;-73
2023/12/24 12:35:36;;;;;;;11.13;2.10;;;12.30;89.70;;;;;;5005805;28;20273;-72
2023/12/24 12:38:03;;;;;;;9.50;2.00;;;12.20;89.70;;;;;;4989624;28;20056;-73
2023/12/24 12:40:30;;;;;;;10.15;1.63;;;12.30;89.70;;;;;;4996564;28;20050;-72
2023/12/24 12:42:57;;;;;;;9.45;1.73;;;12.20;89.80;;;;;;5001884;28;20049;-73
2023/12/24 12:45:24;;;;;;;7.40;1.27;;;12.20;90.10;;;;;;4999478;28;20064;-71
2023/12/24 12:47:51;;;;;;;8.20;1.48;;;12.20;90.10;;;;;;5009991;28;20257;-73
2023/12/24 12:50:20;;;;;;;8.70;2.10;;;12.20;90.10;;;;;;5014558;28;20876;-73
2023/12/24 12:52:50;;;;;;;8.52;1.77;;;12.30;90.20;;;;;;5014035;28;20718;-74
2023/12/24 12:55:22;;;;;;;4.57;1.15;;;12.20;90.20;;;;;;5000222;28;20141;-74